Hlavní strana
METAR-TAF:

METAR-TAF

Letiště :

Sachs Harbour, Severozápadní teritoria, Kanada

zeměpisná šířka: 72-00N, zeměpisná délka: 125-17W, výška: 86 m

Aktuální stav počasí

Zpráva byla vytvořena před 4 hodinami a 34 minutami, v 23:00 UTC
Severní vítr 14 kt
Teplota -20°C
Vlhkost vzduchu 77%
Tlak 1019 hPa
Viditelnost: 24.1 km
Skoro jasno ve výšce 300 ft
Skoro jasno ve výšce 8000 ft
Polojasno ve výšce 21000 ft

METAR: CYSY 182300Z 36014KT 15SM FEW003 FEW080 SCT210 M20/M23 A3010 RMK ST1AC1CI4 ST TR AC TR LAST OBS/NEXT 191300Z SLP208

Čas: 21:34 (03:34 UTC)

Předpověď počasí

Zpráva byla vytvořena před 8 hodinami a 56 minutami, v 18:38 UTC
Předpověď platná od 18 v 19 UTC do 18 v 23 UTC
Severní vítr 12 kt
Viditelnost: 10 km
Skoro jasno ve výšce 300 ft
mlha v blízkosti
Dočasný
od 18 v 19 UTC do 18 v 23 UTC
Viditelnost: 1.6 km
Polojasno ve výšce 300 ft
kouřmo

TAF: CYSY 181838Z 1819/1823 35012KT P6SM VCFG FEW003 TEMPO 1819/1823 1SM BR SCT003 RMK NXT FCST WILL BE ISSUED AT 191445Z

Stav a předpovědi počasí z více než 4 000 letišť (zprávy METAR a TAF).

Červené a žluté tečky na mapě představují dostupné meteorologické stanice.

Když kurzor umístíte na tečku, zobrazí se název stanice.

Pak kliknutím zobrazíte stav a předpověď počasí.

Chcete-li změnit mapu, kliknutím na zelené tlačítko se znaménkem +mapu přiblížíte, kliknutím na zelené tlačítko se znaménkem – mapu oddálíte a kliknutím na zelené šipky přejdete na sousední mapy.


METAR-TAF: